Time;durP1;ratioP1;P1;durP2;ratioP2;P2;SDS_P1;SDS_P2;PMS_P1;PMS_P2;Temp;Humidity;BMP_temperature;BMP_pressure;BME280_temperature;BME280_humidity;BME280_pressure;Samples;Min_cycle;Max_cycle;Signal;HPM_P1;HPM_P2
2023/07/07 00:00:12;;;;;;;3.53;2.35;;;16.10;99.90;;;;;;2090730;28;20396;-70
2023/07/07 00:01:13;;;;;;;2.97;2.67;;;16.10;99.90;;;;;;2091133;28;20089;-70
2023/07/07 00:02:14;;;;;;;2.85;2.30;;;16.10;99.90;;;;;;2094063;28;20025;-70
2023/07/07 00:03:14;;;;;;;3.15;2.40;;;16.10;99.90;;;;;;2091461;28;20059;-70
2023/07/07 00:04:15;;;;;;;4.75;2.58;;;16.00;99.90;;;;;;2091183;28;20031;-70
2023/07/07 00:05:16;;;;;;;2.50;2.30;;;16.00;99.90;;;;;;2092015;28;20036;-70
2023/07/07 00:06:16;;;;;;;3.80;2.63;;;16.00;99.90;;;;;;2093557;28;20045;-70
2023/07/07 00:07:17;;;;;;;3.65;2.60;;;16.00;99.90;;;;;;2092938;28;20107;-70
2023/07/07 00:08:18;;;;;;;3.67;2.55;;;16.00;99.90;;;;;;2090510;28;20027;-70
2023/07/07 00:09:18;;;;;;;2.90;2.08;;;16.00;99.90;;;;;;2091989;28;20570;-70
2023/07/07 00:10:19;;;;;;;3.17;2.17;;;16.00;99.90;;;;;;2091202;28;20033;-70
2023/07/07 00:11:20;;;;;;;2.58;2.38;;;16.00;99.90;;;;;;2090716;28;20025;-70
2023/07/07 00:12:20;;;;;;;3.40;2.80;;;16.00;99.90;;;;;;2091866;28;20499;-70
2023/07/07 00:13:21;;;;;;;2.55;2.35;;;16.00;99.90;;;;;;2090755;28;20086;-70
2023/07/07 00:14:21;;;;;;;3.60;2.33;;;16.00;99.90;;;;;;2092119;28;20017;-70
2023/07/07 00:15:22;;;;;;;3.15;2.50;;;15.90;99.90;;;;;;2091138;28;20025;-70
2023/07/07 00:16:27;;;;;;;2.70;2.50;;;15.90;99.90;;;;;;2091984;28;20107;-70
2023/07/07 00:17:28;;;;;;;3.92;2.55;;;15.90;99.90;;;;;;2090080;28;20032;-70
2023/07/07 00:18:29;;;;;;;2.55;2.35;;;16.00;99.90;;;;;;2091869;28;20032;-70
2023/07/07 00:19:33;;;;;;;3.45;2.33;;;15.90;99.90;;;;;;2089822;28;20032;-70
2023/07/07 00:20:34;;;;;;;2.90;2.28;;;15.90;99.90;;;;;;2090796;28;20029;-70
2023/07/07 00:21:35;;;;;;;3.60;2.63;;;15.90;99.90;;;;;;2091165;28;20091;-70
2023/07/07 00:22:36;;;;;;;3.42;2.72;;;15.90;99.90;;;;;;2091868;28;20074;-70
2023/07/07 00:23:38;;;;;;;4.57;2.70;;;15.90;99.90;;;;;;2091062;28;20056;-70
2023/07/07 00:24:39;;;;;;;2.85;2.33;;;15.90;99.90;;;;;;2091759;28;20024;-70
2023/07/07 00:25:39;;;;;;;4.95;2.95;;;15.90;99.90;;;;;;2092110;28;20032;-70
2023/07/07 00:26:40;;;;;;;3.75;2.70;;;15.90;99.90;;;;;;2093070;28;20032;-70
2023/07/07 00:27:40;;;;;;;3.45;2.35;;;15.90;99.90;;;;;;2091412;28;20029;-70
2023/07/07 00:28:41;;;;;;;4.05;2.53;;;15.90;99.90;;;;;;2092897;28;20020;-70
2023/07/07 00:29:41;;;;;;;6.18;2.85;;;15.90;99.90;;;;;;2091318;28;20028;-70
2023/07/07 00:30:42;;;;;;;3.40;2.88;;;15.90;99.90;;;;;;2090379;28;20044;-70
2023/07/07 00:31:42;;;;;;;5.22;2.53;;;15.90;99.90;;;;;;2092515;28;20100;-70
2023/07/07 00:32:43;;;;;;;6.70;3.03;;;15.90;99.90;;;;;;2093324;28;20097;-70
2023/07/07 00:33:44;;;;;;;4.15;2.60;;;15.90;99.90;;;;;;2091092;28;20561;-70
2023/07/07 00:34:44;;;;;;;2.60;2.28;;;15.90;99.90;;;;;;2092449;28;20032;-70
2023/07/07 00:35:46;;;;;;;4.25;2.58;;;15.90;99.90;;;;;;2090329;28;20013;-70
2023/07/07 00:36:47;;;;;;;4.00;2.25;;;15.90;99.90;;;;;;2091657;28;20029;-70
2023/07/07 00:37:47;;;;;;;2.60;2.40;;;15.90;99.90;;;;;;2091132;28;20032;-70
2023/07/07 00:38:48;;;;;;;3.22;2.35;;;15.80;99.90;;;;;;2092252;28;20021;-70
2023/07/07 00:39:49;;;;;;;3.38;2.83;;;15.90;99.90;;;;;;2089900;28;21046;-70
2023/07/07 00:40:52;;;;;;;4.55;2.53;;;15.90;99.90;;;;;;2092950;28;20153;-70
2023/07/07 00:41:53;;;;;;;4.00;2.83;;;15.90;99.90;;;;;;2091962;28;20188;-70
2023/07/07 00:42:53;;;;;;;4.05;2.78;;;15.90;99.90;;;;;;2089325;28;20044;-70
2023/07/07 00:44:05;;;;;;;4.78;2.70;;;15.90;99.90;;;;;;2093064;28;20848;-70
2023/07/07 00:45:10;;;;;;;5.30;2.95;;;15.80;99.90;;;;;;2090840;28;20028;-70
2023/07/07 00:46:14;;;;;;;4.20;2.95;;;15.90;99.90;;;;;;2090473;28;20036;-70
2023/07/07 00:47:15;;;;;;;6.53;2.90;;;15.90;99.90;;;;;;2090994;28;20028;-70
2023/07/07 00:48:24;;;;;;;3.95;2.63;;;15.90;99.90;;;;;;2090411;28;20048;-70
2023/07/07 00:49:25;;;;;;;4.80;2.58;;;15.80;99.90;;;;;;2092797;28;20032;-70
2023/07/07 00:50:31;;;;;;;3.10;2.47;;;15.90;99.90;;;;;;2091874;28;20056;-70
2023/07/07 00:51:39;;;;;;;3.17;2.42;;;15.80;99.90;;;;;;2091959;28;20036;-70
2023/07/07 00:52:43;;;;;;;4.95;3.00;;;15.90;99.90;;;;;;2092947;28;20020;-70
2023/07/07 00:53:47;;;;;;;3.83;2.72;;;15.80;99.90;;;;;;2092992;28;20031;-70
2023/07/07 00:54:48;;;;;;;4.25;2.80;;;15.90;99.90;;;;;;2090573;28;20488;-70
2023/07/07 00:55:53;;;;;;;4.97;2.78;;;15.90;99.90;;;;;;2089812;28;20456;-70
2023/07/07 00:56:55;;;;;;;4.55;3.25;;;15.90;99.90;;;;;;2090662;28;20037;-70
2023/07/07 00:58:00;;;;;;;4.07;3.05;;;15.90;99.90;;;;;;2091307;28;20586;-70
2023/07/07 00:59:06;;;;;;;7.72;3.15;;;15.80;99.90;;;;;;2091469;28;20468;-70
2023/07/07 01:00:09;;;;;;;3.92;2.55;;;15.90;99.90;;;;;;2092385;28;20111;-70
2023/07/07 01:01:14;;;;;;;18.10;3.60;;;15.90;99.90;;;;;;2091057;28;20357;-70
2023/07/07 01:02:25;;;;;;;4.22;3.13;;;15.90;99.90;;;;;;2090505;28;20722;-70
2023/07/07 01:03:37;;;;;;;6.32;3.25;;;15.90;99.90;;;;;;2093240;28;20028;-70
2023/07/07 01:04:39;;;;;;;4.15;2.95;;;15.80;99.90;;;;;;2092867;28;20025;-70
2023/07/07 01:05:42;;;;;;;5.55;3.30;;;15.80;99.90;;;;;;2089424;28;20102;-70
2023/07/07 01:06:49;;;;;;;5.65;3.13;;;15.80;99.90;;;;;;2091633;28;20111;-70
2023/07/07 01:07:51;;;;;;;5.72;3.00;;;15.90;99.90;;;;;;2091778;28;20403;-70
2023/07/07 01:08:59;;;;;;;3.58;3.10;;;15.80;99.90;;;;;;2090077;28;20033;-70
2023/07/07 01:10:00;;;;;;;3.65;3.35;;;15.80;99.90;;;;;;2091373;28;20095;-70
2023/07/07 01:11:01;;;;;;;5.25;3.50;;;15.80;99.90;;;;;;2092242;28;20025;-70
2023/07/07 01:12:01;;;;;;;4.63;3.47;;;15.80;99.90;;;;;;2092692;28;20028;-70
2023/07/07 01:13:04;;;;;;;4.53;3.65;;;15.80;99.90;;;;;;2092173;28;20029;-70
2023/07/07 01:14:10;;;;;;;4.82;3.35;;;15.80;99.90;;;;;;2089986;28;20025;-70
2023/07/07 01:15:10;;;;;;;6.15;3.45;;;15.80;99.90;;;;;;2090771;28;20044;-70
2023/07/07 01:16:32;;;;;;;5.25;3.42;;;15.80;99.90;;;;;;2092772;28;20032;-70
2023/07/07 01:17:38;;;;;;;5.97;3.53;;;15.80;99.90;;;;;;2092584;28;20459;-70
2023/07/07 01:19:04;;;;;;;4.95;3.30;;;15.80;99.90;;;;;;2093423;28;20676;-70
2023/07/07 01:20:15;;;;;;;5.68;3.50;;;15.80;99.90;;;;;;2088417;28;20045;-70
2023/07/07 01:21:37;;;;;;;6.35;3.58;;;15.80;99.90;;;;;;2092008;28;20044;-70
2023/07/07 01:22:52;;;;;;;4.68;3.20;;;15.80;99.90;;;;;;2090876;28;20377;-70
2023/07/07 01:24:38;;;;;;;5.18;3.40;;;15.70;99.90;;;;;;2090147;28;20031;-70
2023/07/07 01:25:57;;;;;;;4.60;3.38;;;15.70;99.90;;;;;;2092373;28;20037;-70
2023/07/07 01:27:26;;;;;;;6.47;4.28;;;15.60;99.90;;;;;;2092572;28;20033;-70
2023/07/07 01:28:43;;;;;;;8.27;4.65;;;15.60;99.90;;;;;;2092489;28;20021;-70
2023/07/07 01:30:02;;;;;;;6.95;4.40;;;15.60;99.90;;;;;;2090837;28;20045;-70
2023/07/07 01:31:15;;;;;;;5.82;3.88;;;15.60;99.90;;;;;;2092596;28;20031;-70
2023/07/07 01:32:21;;;;;;;9.50;4.93;;;15.60;99.90;;;;;;2090753;28;20032;-70
2023/07/07 01:33:25;;;;;;;9.75;5.25;;;15.60;99.90;;;;;;2093057;28;20079;-70
2023/07/07 01:34:26;;;;;;;7.18;4.00;;;15.60;99.90;;;;;;2093103;28;20025;-70
2023/07/07 01:35:27;;;;;;;4.05;3.50;;;15.60;99.90;;;;;;2090446;28;20112;-69
2023/07/07 01:36:27;;;;;;;8.18;5.20;;;15.60;99.90;;;;;;2091289;28;20039;-70
2023/07/07 01:37:28;;;;;;;7.97;4.93;;;15.60;99.90;;;;;;2089279;28;20135;-70
2023/07/07 01:38:30;;;;;;;9.95;4.90;;;15.60;99.90;;;;;;2091746;28;20365;-70
2023/07/07 01:39:30;;;;;;;6.35;4.70;;;15.60;99.90;;;;;;2091188;28;20079;-70
2023/07/07 01:40:53;;;;;;;5.55;4.22;;;15.60;99.90;;;;;;2090995;28;20037;-70
2023/07/07 01:42:07;;;;;;;5.78;4.55;;;15.60;99.90;;;;;;2092520;28;20545;-70
2023/07/07 01:43:20;;;;;;;5.72;4.43;;;15.60;99.90;;;;;;2091755;28;20025;-70
2023/07/07 01:44:40;;;;;;;6.75;4.43;;;15.60;99.90;;;;;;2092556;28;20380;-70
2023/07/07 01:45:56;;;;;;;8.00;4.57;;;15.60;99.90;;;;;;2091007;28;20032;-70
2023/07/07 01:47:13;;;;;;;7.45;4.63;;;15.60;99.90;;;;;;2090828;28;20033;-70
2023/07/07 01:48:32;;;;;;;6.25;4.53;;;15.60;99.90;;;;;;2090415;28;20021;-70
2023/07/07 01:49:40;;;;;;;5.60;4.07;;;15.60;99.90;;;;;;2090635;28;20021;-70
2023/07/07 01:50:41;;;;;;;7.03;4.32;;;15.60;99.90;;;;;;2091073;28;20017;-70
2023/07/07 01:51:54;;;;;;;7.07;4.38;;;15.60;99.90;;;;;;2091692;28;20029;-70
2023/07/07 01:53:09;;;;;;;8.05;4.78;;;15.60;99.90;;;;;;2090248;28;20059;-70
2023/07/07 01:54:12;;;;;;;7.50;4.45;;;15.60;99.90;;;;;;2090727;28;20430;-70
2023/07/07 01:55:30;;;;;;;6.10;4.65;;;15.50;99.90;;;;;;2094549;28;20112;-70
2023/07/07 01:56:31;;;;;;;8.32;5.18;;;15.50;99.90;;;;;;2092240;28;20021;-70
2023/07/07 01:57:34;;;;;;;10.40;5.20;;;15.50;99.90;;;;;;2092157;28;20941;-70
2023/07/07 01:58:36;;;;;;;6.70;4.60;;;15.50;99.90;;;;;;2093050;28;20063;-70
2023/07/07 01:59:40;;;;;;;7.75;4.55;;;15.60;99.90;;;;;;2094398;28;20376;-70
2023/07/07 02:00:42;;;;;;;6.95;4.95;;;15.50;99.90;;;;;;2091734;28;20024;-70
2023/07/07 02:01:44;;;;;;;8.23;4.88;;;15.60;99.90;;;;;;2091214;28;20024;-70
2023/07/07 02:02:45;;;;;;;5.95;4.82;;;15.60;99.90;;;;;;2093670;28;20493;-70
2023/07/07 02:03:46;;;;;;;7.38;5.18;;;15.50;99.90;;;;;;2093476;28;20028;-70
2023/07/07 02:04:46;;;;;;;9.98;5.25;;;15.60;99.90;;;;;;2093563;28;20029;-70
2023/07/07 02:05:47;;;;;;;6.65;4.40;;;15.50;99.90;;;;;;2090932;28;20033;-70
2023/07/07 02:06:48;;;;;;;7.05;5.30;;;15.60;99.90;;;;;;2091606;28;20036;-70
2023/07/07 02:07:49;;;;;;;10.35;4.80;;;15.60;99.90;;;;;;2092338;28;20484;-70
2023/07/07 02:08:50;;;;;;;8.43;5.15;;;15.50;99.90;;;;;;2091768;28;20277;-70
2023/07/07 02:09:50;;;;;;;8.52;4.63;;;15.50;99.90;;;;;;2095276;28;20548;-70
2023/07/07 02:10:53;;;;;;;7.70;4.40;;;15.50;99.90;;;;;;2096569;28;20019;-70
2023/07/07 02:11:54;;;;;;;8.27;4.97;;;15.50;99.90;;;;;;2091593;28;20029;-70
2023/07/07 02:12:54;;;;;;;5.88;4.20;;;15.60;99.90;;;;;;2093508;28;20509;-70
2023/07/07 02:13:55;;;;;;;8.20;4.28;;;15.50;99.90;;;;;;2091280;28;20017;-70
2023/07/07 02:14:56;;;;;;;7.95;4.75;;;15.50;99.90;;;;;;2092328;28;20091;-70
2023/07/07 02:15:56;;;;;;;6.63;4.38;;;15.50;99.90;;;;;;2092873;28;20032;-70
2023/07/07 02:16:57;;;;;;;7.25;4.55;;;15.50;99.90;;;;;;2092872;28;20029;-70
2023/07/07 02:17:58;;;;;;;6.18;4.75;;;15.50;99.90;;;;;;2094695;28;20086;-70
2023/07/07 02:18:58;;;;;;;7.93;4.30;;;15.50;99.90;;;;;;2093582;28;20056;-70
2023/07/07 02:19:59;;;;;;;6.63;4.65;;;15.50;99.90;;;;;;2091289;28;20032;-70
2023/07/07 02:20:59;;;;;;;6.97;4.85;;;15.50;99.90;;;;;;2094905;28;20788;-70
2023/07/07 02:22:00;;;;;;;10.13;4.63;;;15.50;99.90;;;;;;2091976;28;20033;-70
2023/07/07 02:23:01;;;;;;;6.70;4.57;;;15.50;99.90;;;;;;2092397;28;20103;-70
2023/07/07 02:24:01;;;;;;;6.95;4.75;;;15.50;99.90;;;;;;2091407;28;20033;-70
2023/07/07 02:25:03;;;;;;;7.90;4.75;;;15.50;99.90;;;;;;2092124;28;20051;-70
2023/07/07 02:26:03;;;;;;;8.68;5.30;;;15.50;99.90;;;;;;2093931;28;20029;-70
2023/07/07 02:27:04;;;;;;;8.45;5.57;;;15.50;99.90;;;;;;2092841;28;20043;-70
2023/07/07 02:28:04;;;;;;;7.57;5.07;;;15.50;99.90;;;;;;2091781;28;20064;-70
2023/07/07 02:29:05;;;;;;;10.80;6.13;;;15.50;99.90;;;;;;2092915;28;20025;-70
2023/07/07 02:30:07;;;;;;;8.32;5.80;;;15.50;99.90;;;;;;2092092;28;20020;-70
2023/07/07 02:31:10;;;;;;;7.35;5.63;;;15.40;99.90;;;;;;2091850;28;20071;-70
2023/07/07 02:32:10;;;;;;;8.30;5.90;;;15.40;99.90;;;;;;2092312;28;20104;-70
2023/07/07 02:33:11;;;;;;;8.05;5.43;;;15.40;99.90;;;;;;2092656;28;20029;-70
2023/07/07 02:34:11;;;;;;;7.22;4.57;;;15.40;99.90;;;;;;2093957;28;20048;-70
2023/07/07 02:35:13;;;;;;;6.90;4.95;;;15.40;99.90;;;;;;2091586;28;20025;-70
2023/07/07 02:36:13;;;;;;;6.55;4.88;;;15.40;99.90;;;;;;2091099;28;20033;-70
2023/07/07 02:37:15;;;;;;;7.13;5.30;;;15.40;99.90;;;;;;2091133;28;21821;-70
2023/07/07 02:38:16;;;;;;;8.25;5.28;;;15.40;99.90;;;;;;2092320;28;20021;-70
2023/07/07 02:39:16;;;;;;;9.43;6.00;;;15.40;99.90;;;;;;2092375;28;20028;-70
2023/07/07 02:40:17;;;;;;;6.43;4.63;;;15.40;99.90;;;;;;2092018;28;20143;-70
2023/07/07 02:41:17;;;;;;;10.80;5.13;;;15.40;99.90;;;;;;2092025;28;20021;-70
2023/07/07 02:42:18;;;;;;;8.68;5.32;;;15.40;99.90;;;;;;2093176;28;20031;-70
2023/07/07 02:43:19;;;;;;;7.22;4.95;;;15.40;99.90;;;;;;2093991;28;20849;-70
2023/07/07 02:44:20;;;;;;;7.03;5.10;;;15.40;99.90;;;;;;2094684;28;20055;-70
2023/07/07 02:45:20;;;;;;;8.40;4.85;;;15.40;99.90;;;;;;2092015;28;20060;-70
2023/07/07 02:46:21;;;;;;;10.30;5.60;;;15.40;99.90;;;;;;2091114;28;20029;-70
2023/07/07 02:47:22;;;;;;;7.85;5.13;;;15.40;99.90;;;;;;2091256;28;20067;-70
2023/07/07 02:48:22;;;;;;;8.02;5.07;;;15.30;99.90;;;;;;2092454;28;20043;-70
2023/07/07 02:49:23;;;;;;;6.45;5.50;;;15.30;99.90;;;;;;2091769;28;20032;-70
2023/07/07 02:50:23;;;;;;;6.68;5.15;;;15.40;99.90;;;;;;2092446;28;20116;-70
2023/07/07 02:51:24;;;;;;;6.85;5.30;;;15.30;99.90;;;;;;2092951;28;20029;-70
2023/07/07 02:52:25;;;;;;;7.72;5.15;;;15.30;99.90;;;;;;2090166;28;20028;-70
2023/07/07 02:53:28;;;;;;;6.82;5.00;;;15.40;99.90;;;;;;2091708;28;20024;-70
2023/07/07 02:54:29;;;;;;;7.22;5.78;;;15.40;99.90;;;;;;2091961;28;20017;-70
2023/07/07 02:55:30;;;;;;;10.65;6.28;;;15.30;99.90;;;;;;2093480;28;20028;-70
2023/07/07 02:56:30;;;;;;;7.55;5.43;;;15.40;99.90;;;;;;2091618;28;20108;-70
2023/07/07 02:57:31;;;;;;;8.68;5.13;;;15.30;99.90;;;;;;2091935;28;20058;-70
2023/07/07 02:58:31;;;;;;;8.65;5.03;;;15.30;99.90;;;;;;2093329;28;20025;-70
2023/07/07 02:59:32;;;;;;;7.35;5.25;;;15.30;99.90;;;;;;2091600;28;20036;-70
2023/07/07 03:00:32;;;;;;;8.23;5.45;;;15.30;99.90;;;;;;2089498;28;20033;-69
2023/07/07 03:01:33;;;;;;;6.47;5.10;;;15.30;99.90;;;;;;2093518;28;20121;-70
2023/07/07 03:02:33;;;;;;;8.75;5.32;;;15.30;99.90;;;;;;2093104;28;20110;-69
2023/07/07 03:03:34;;;;;;;9.88;5.05;;;15.30;99.90;;;;;;2094251;28;20396;-69
2023/07/07 03:04:35;;;;;;;9.82;5.28;;;15.30;99.90;;;;;;2094815;28;20055;-69
2023/07/07 03:05:35;;;;;;;7.72;4.90;;;15.30;99.90;;;;;;2090908;28;20120;-69
2023/07/07 03:06:36;;;;;;;9.13;5.07;;;15.30;99.90;;;;;;2093153;28;20021;-70
2023/07/07 03:07:36;;;;;;;8.60;5.28;;;15.30;99.90;;;;;;2092469;28;20111;-70
2023/07/07 03:08:37;;;;;;;6.00;4.97;;;15.30;99.90;;;;;;2091250;28;20933;-70
2023/07/07 03:09:37;;;;;;;8.35;4.97;;;15.30;99.90;;;;;;2091570;28;20025;-70
2023/07/07 03:10:40;;;;;;;6.15;4.75;;;15.30;99.90;;;;;;2091124;28;20028;-69
2023/07/07 03:11:40;;;;;;;5.07;4.00;;;15.30;99.90;;;;;;2091399;28;20063;-69
2023/07/07 03:12:41;;;;;;;7.90;4.40;;;15.30;99.90;;;;;;2090902;28;20021;-70
2023/07/07 03:13:41;;;;;;;7.03;4.20;;;15.20;99.90;;;;;;2091805;28;20495;-70
2023/07/07 03:14:42;;;;;;;8.30;4.95;;;15.20;99.90;;;;;;2091995;28;20031;-70
2023/07/07 03:15:42;;;;;;;5.30;3.72;;;15.20;99.90;;;;;;2093218;28;20087;-69
2023/07/07 03:16:47;;;;;;;6.22;4.00;;;15.20;99.90;;;;;;2092722;28;20154;-69
2023/07/07 03:17:47;;;;;;;6.35;3.97;;;15.20;99.90;;;;;;2094237;28;20033;-69
2023/07/07 03:18:51;;;;;;;3.97;3.25;;;15.20;99.90;;;;;;2091486;28;20487;-69
2023/07/07 03:19:52;;;;;;;4.32;3.40;;;15.20;99.90;;;;;;2089606;28;20091;-70
2023/07/07 03:20:52;;;;;;;7.78;3.90;;;15.20;99.90;;;;;;2090586;28;20021;-70
2023/07/07 03:21:54;;;;;;;5.63;3.58;;;15.20;99.90;;;;;;2092185;28;20533;-69
2023/07/07 03:22:55;;;;;;;7.28;3.65;;;15.10;99.90;;;;;;2091395;28;20040;-70
2023/07/07 03:23:56;;;;;;;6.68;3.63;;;15.10;99.90;;;;;;2092818;28;20029;-70
2023/07/07 03:24:56;;;;;;;4.60;3.15;;;15.10;99.90;;;;;;2090700;28;20082;-70
2023/07/07 03:26:09;;;;;;;4.75;3.60;;;15.10;99.90;;;;;;2091895;28;20074;-70
2023/07/07 03:27:10;;;;;;;7.35;3.08;;;15.10;99.90;;;;;;2091394;28;20020;-70
2023/07/07 03:28:10;;;;;;;4.45;3.00;;;15.10;99.90;;;;;;2091690;28;20039;-70
2023/07/07 03:29:11;;;;;;;4.03;2.83;;;15.10;99.90;;;;;;2092746;28;20024;-70
2023/07/07 03:30:12;;;;;;;5.28;3.20;;;15.10;99.90;;;;;;2091850;28;20037;-70
2023/07/07 03:31:32;;;;;;;4.35;3.40;;;15.10;99.90;;;;;;2092086;28;20568;-70
2023/07/07 03:32:33;;;;;;;4.53;3.38;;;15.10;99.90;;;;;;2090457;28;20504;-70
2023/07/07 03:33:33;;;;;;;5.68;2.88;;;15.10;99.90;;;;;;2092633;28;20024;-70
2023/07/07 03:34:36;;;;;;;5.75;3.10;;;15.10;99.90;;;;;;2092352;28;20055;-70
2023/07/07 03:35:37;;;;;;;4.38;3.28;;;15.10;99.90;;;;;;2092567;28;20040;-69
2023/07/07 03:36:38;;;;;;;7.55;3.55;;;15.10;99.90;;;;;;2093335;28;20033;-69
2023/07/07 03:37:39;;;;;;;5.95;3.15;;;15.10;99.90;;;;;;2092623;28;20029;-69
2023/07/07 03:38:40;;;;;;;4.80;3.10;;;15.20;99.90;;;;;;2094186;28;20157;-69
2023/07/07 03:39:41;;;;;;;6.57;3.00;;;15.20;99.90;;;;;;2090967;28;20090;-70
2023/07/07 03:40:47;;;;;;;3.67;3.05;;;15.20;99.90;;;;;;2091585;28;20063;-69
2023/07/07 03:41:48;;;;;;;4.13;2.90;;;15.20;99.90;;;;;;2094001;28;20052;-69
2023/07/07 03:42:48;;;;;;;5.40;3.10;;;15.20;99.90;;;;;;2090835;28;20031;-69
2023/07/07 03:43:50;;;;;;;3.80;3.00;;;15.20;99.90;;;;;;2091942;28;20037;-69
2023/07/07 03:44:50;;;;;;;5.57;3.17;;;15.20;99.90;;;;;;2089627;28;20107;-69
2023/07/07 03:45:51;;;;;;;3.55;2.70;;;15.20;99.90;;;;;;2093091;28;20039;-69
2023/07/07 03:46:51;;;;;;;5.20;3.45;;;15.20;99.90;;;;;;2093825;28;20116;-69
2023/07/07 03:47:52;;;;;;;7.80;3.65;;;15.20;99.90;;;;;;2092093;28;20032;-70
2023/07/07 03:48:53;;;;;;;7.18;3.47;;;15.20;99.90;;;;;;2092230;28;20516;-70
2023/07/07 03:49:54;;;;;;;5.13;3.63;;;15.20;99.90;;;;;;2088678;28;20427;-70
2023/07/07 03:50:58;;;;;;;5.13;3.00;;;15.20;99.90;;;;;;2093139;28;20028;-70
2023/07/07 03:51:58;;;;;;;5.47;3.00;;;15.20;99.90;;;;;;2091287;28;20025;-70
2023/07/07 03:52:59;;;;;;;5.35;2.90;;;15.30;99.90;;;;;;2091537;28;20067;-70
2023/07/07 03:54:00;;;;;;;4.47;3.00;;;15.30;99.90;;;;;;2092267;28;20380;-70
2023/07/07 03:55:00;;;;;;;4.55;2.67;;;15.30;99.90;;;;;;2092028;28;20067;-70
2023/07/07 03:56:01;;;;;;;3.13;2.72;;;15.30;99.90;;;;;;2091199;28;20040;-70
2023/07/07 03:57:02;;;;;;;4.22;3.08;;;15.30;99.90;;;;;;2090368;28;20453;-70
2023/07/07 03:58:03;;;;;;;5.30;3.42;;;15.30;99.90;;;;;;2092629;28;20483;-70
2023/07/07 03:59:03;;;;;;;4.15;2.60;;;15.30;99.90;;;;;;2091645;28;20017;-70
2023/07/07 04:00:04;;;;;;;4.78;3.38;;;15.30;99.90;;;;;;2090863;28;20503;-70
2023/07/07 04:01:07;;;;;;;4.15;3.05;;;15.30;99.90;;;;;;2091108;28;20049;-70
2023/07/07 04:02:08;;;;;;;6.30;3.22;;;15.30;99.90;;;;;;2092635;28;20396;-70
2023/07/07 04:03:08;;;;;;;5.30;3.33;;;15.40;99.90;;;;;;2092699;28;20028;-70
2023/07/07 04:04:09;;;;;;;5.13;3.03;;;15.40;99.90;;;;;;2092838;28;20051;-69
2023/07/07 04:05:10;;;;;;;5.78;3.15;;;15.40;99.90;;;;;;2090016;28;20029;-69
2023/07/07 04:06:11;;;;;;;4.32;2.70;;;15.40;99.90;;;;;;2092475;28;20129;-69
2023/07/07 04:07:12;;;;;;;6.45;2.85;;;15.40;99.90;;;;;;2091454;28;20037;-69
2023/07/07 04:08:13;;;;;;;4.15;3.10;;;15.50;99.90;;;;;;2093511;28;20044;-70
2023/07/07 04:09:14;;;;;;;5.57;3.08;;;15.60;99.90;;;;;;2092806;28;20029;-70
2023/07/07 04:10:16;;;;;;;6.25;2.95;;;15.60;99.90;;;;;;2092244;28;20031;-70
2023/07/07 04:11:19;;;;;;;7.13;3.35;;;15.70;99.90;;;;;;2092047;28;20492;-70
2023/07/07 04:12:20;;;;;;;5.70;2.78;;;15.80;99.90;;;;;;2091009;28;20029;-70
2023/07/07 04:13:20;;;;;;;5.55;3.28;;;15.90;99.90;;;;;;2092742;28;20028;-70
2023/07/07 04:14:25;;;;;;;4.90;3.03;;;16.10;99.90;;;;;;2092120;28;20479;-70
2023/07/07 04:15:26;;;;;;;5.10;3.35;;;16.20;99.90;;;;;;2092007;28;20075;-69
2023/07/07 04:16:27;;;;;;;4.85;3.03;;;16.30;99.90;;;;;;2091847;28;20032;-70
2023/07/07 04:17:27;;;;;;;4.75;2.92;;;16.50;99.90;;;;;;2092402;28;20047;-70
2023/07/07 04:18:28;;;;;;;4.18;2.78;;;16.70;99.90;;;;;;2090227;28;20035;-70
2023/07/07 04:19:30;;;;;;;4.13;3.03;;;16.80;99.90;;;;;;2090248;28;20017;-70
2023/07/07 04:20:33;;;;;;;4.20;3.17;;;17.10;99.90;;;;;;2091232;28;20036;-70
2023/07/07 04:21:34;;;;;;;6.50;3.22;;;17.30;99.90;;;;;;2089649;28;20036;-70
2023/07/07 04:22:34;;;;;;;5.57;3.22;;;17.50;99.90;;;;;;2093215;28;20420;-70
2023/07/07 04:23:38;;;;;;;5.85;3.40;;;17.70;99.90;;;;;;2090751;28;20029;-70
2023/07/07 04:24:39;;;;;;;6.82;3.28;;;17.80;99.90;;;;;;2091519;28;20083;-70
2023/07/07 04:25:39;;;;;;;3.90;3.17;;;18.00;99.90;;;;;;2093336;28;20106;-70
2023/07/07 04:26:40;;;;;;;8.23;3.17;;;18.20;99.90;;;;;;2090865;28;20494;-70
2023/07/07 04:27:41;;;;;;;5.13;3.40;;;18.40;99.90;;;;;;2090455;28;20013;-70
2023/07/07 04:28:42;;;;;;;4.07;3.42;;;18.60;99.90;;;;;;2092521;28;20559;-70
2023/07/07 04:29:43;;;;;;;7.30;3.10;;;18.80;99.90;;;;;;2090220;28;20393;-70
2023/07/07 04:30:44;;;;;;;5.13;3.28;;;18.90;99.90;;;;;;2091311;28;20103;-70
2023/07/07 04:31:45;;;;;;;3.90;2.85;;;19.10;99.90;;;;;;2091502;28;20480;-70
2023/07/07 04:32:46;;;;;;;4.50;2.92;;;19.10;99.90;;;;;;2091585;28;20115;-70
2023/07/07 04:33:47;;;;;;;4.82;2.85;;;19.20;99.90;;;;;;2090692;28;20038;-70
2023/07/07 04:34:47;;;;;;;4.78;3.08;;;19.10;99.90;;;;;;2091070;28;20108;-70
2023/07/07 04:35:52;;;;;;;5.78;3.10;;;19.10;99.90;;;;;;2090672;28;20054;-70
2023/07/07 04:36:53;;;;;;;5.35;3.33;;;19.00;99.90;;;;;;2093387;28;20131;-70
2023/07/07 04:37:53;;;;;;;4.80;3.10;;;19.00;99.90;;;;;;2092071;28;20029;-70
2023/07/07 04:38:54;;;;;;;4.88;3.03;;;18.90;99.90;;;;;;2091171;28;20095;-70
2023/07/07 04:39:54;;;;;;;3.75;2.88;;;18.90;99.90;;;;;;2090884;28;20025;-70
2023/07/07 04:40:55;;;;;;;6.97;3.33;;;18.80;99.90;;;;;;2090819;28;20059;-70
2023/07/07 04:41:55;;;;;;;4.97;3.00;;;18.80;99.90;;;;;;2091655;28;20040;-70
2023/07/07 04:42:56;;;;;;;4.22;2.88;;;18.80;99.90;;;;;;2090020;28;20128;-70
2023/07/07 04:43:59;;;;;;;4.22;2.80;;;18.80;99.90;;;;;;2091573;28;20035;-70
2023/07/07 04:44:59;;;;;;;4.28;2.85;;;18.80;99.90;;;;;;2091130;28;20819;-70
2023/07/07 04:46:02;;;;;;;6.38;2.92;;;18.80;99.90;;;;;;2090344;28;20456;-70
2023/07/07 04:47:02;;;;;;;4.20;2.88;;;18.90;99.90;;;;;;2090925;28;20112;-70
2023/07/07 04:48:03;;;;;;;5.97;3.10;;;18.90;99.90;;;;;;2095531;28;20089;-70
2023/07/07 04:49:08;;;;;;;5.65;2.90;;;18.90;99.90;;;;;;2094803;28;20032;-70
2023/07/07 04:50:09;;;;;;;4.38;2.63;;;19.00;99.90;;;;;;2089848;28;20033;-70
2023/07/07 04:51:11;;;;;;;5.07;3.13;;;19.00;99.90;;;;;;2092072;28;20029;-70
2023/07/07 04:52:12;;;;;;;4.05;2.75;;;19.00;99.90;;;;;;2090689;28;20067;-70
2023/07/07 04:53:12;;;;;;;5.05;3.05;;;19.10;99.90;;;;;;2091260;28;20066;-70
2023/07/07 04:54:14;;;;;;;5.72;3.03;;;19.10;99.90;;;;;;2091094;28;20464;-70
2023/07/07 04:55:15;;;;;;;4.07;2.75;;;19.20;99.90;;;;;;2091785;28;20733;-70
2023/07/07 04:56:19;;;;;;;3.30;2.70;;;19.20;99.90;;;;;;2090627;28;20936;-70
2023/07/07 04:57:19;;;;;;;5.03;3.22;;;19.30;99.90;;;;;;2090877;28;20025;-70
2023/07/07 04:58:20;;;;;;;5.60;2.78;;;19.30;99.90;;;;;;2091214;28;20058;-70
2023/07/07 04:59:20;;;;;;;5.35;2.95;;;19.40;99.90;;;;;;2093864;28;20086;-70
2023/07/07 05:00:21;;;;;;;4.30;2.78;;;19.40;99.90;;;;;;2092472;28;20139;-70
2023/07/07 05:01:24;;;;;;;5.03;2.83;;;19.50;99.90;;;;;;2093189;28;20028;-70
2023/07/07 05:02:24;;;;;;;5.13;2.70;;;19.60;99.90;;;;;;2093345;28;20146;-70
2023/07/07 05:03:25;;;;;;;4.85;2.92;;;19.60;99.90;;;;;;2091409;28;20645;-70
2023/07/07 05:04:27;;;;;;;5.38;2.70;;;19.70;99.90;;;;;;2091621;28;20029;-70
2023/07/07 05:05:27;;;;;;;4.63;2.90;;;19.70;99.90;;;;;;2091514;28;20025;-70
2023/07/07 05:06:32;;;;;;;10.98;3.08;;;19.80;99.90;;;;;;2090581;28;20619;-70
2023/07/07 05:07:32;;;;;;;3.17;2.53;;;19.90;99.90;;;;;;2093922;28;20043;-70
2023/07/07 05:08:35;;;;;;;5.47;3.22;;;20.00;99.90;;;;;;2091836;28;20095;-71
2023/07/07 05:09:36;;;;;;;4.32;3.00;;;20.00;99.90;;;;;;2092403;28;20023;-71
2023/07/07 05:10:36;;;;;;;5.53;3.22;;;20.10;99.90;;;;;;2091921;28;20023;-71
2023/07/07 05:11:37;;;;;;;4.20;3.08;;;20.20;99.90;;;;;;2091911;28;20021;-70
2023/07/07 05:12:38;;;;;;;3.67;2.97;;;20.20;99.90;;;;;;2091209;28;20017;-70
2023/07/07 05:13:38;;;;;;;4.88;2.67;;;20.30;99.90;;;;;;2091555;28;20432;-70
2023/07/07 05:14:39;;;;;;;4.78;3.05;;;20.40;99.90;;;;;;2091552;28;20078;-70
2023/07/07 05:15:39;;;;;;;6.05;3.30;;;20.40;99.90;;;;;;2093080;28;20028;-70
2023/07/07 05:16:40;;;;;;;2.92;2.60;;;20.50;99.90;;;;;;2092438;28;20044;-70
2023/07/07 05:17:40;;;;;;;5.18;3.30;;;20.50;99.90;;;;;;2091644;28;20032;-71
2023/07/07 05:18:41;;;;;;;5.68;3.10;;;20.60;99.90;;;;;;2091090;28;20024;-71
2023/07/07 05:19:41;;;;;;;3.83;3.03;;;20.70;99.90;;;;;;2091859;28;20031;-71
2023/07/07 05:20:42;;;;;;;5.05;3.00;;;20.80;99.90;;;;;;2090948;28;20498;-71
2023/07/07 05:21:43;;;;;;;4.15;3.03;;;20.80;99.90;;;;;;2092391;28;20484;-70
2023/07/07 05:22:43;;;;;;;5.38;2.70;;;20.90;99.90;;;;;;2091674;28;20604;-70
2023/07/07 05:23:44;;;;;;;3.97;2.88;;;21.00;99.90;;;;;;2091759;28;20153;-70
2023/07/07 05:24:45;;;;;;;3.88;3.20;;;21.10;99.90;;;;;;2092154;28;20040;-70
2023/07/07 05:25:45;;;;;;;3.88;2.85;;;21.20;99.90;;;;;;2091212;28;20029;-70